M I D A S
Marine Information and Data Acquisition System
Tripno 529 of the Zeeleeuw from 2003-07-02 06:09:36 to 2003-07-02 13:08:40
Back to CruiseResearch ActivitiesStationsMapUnderway DataData graphs

EquipmentUnitsComments
TimeDGPSUTC
LatitudeDGPSDM.mWGS84
LongitudeDGPSDM.mWGS84
SpeedMeteo Stationm/sRelative wind speed
DirectionMeteo StationdegRelative wind direction
TemperatureMeteo Stationdeg CelciusAir temperature
PressureMeteo StationPaAtmospheric pressure
HumidityMeteo Station%Relative humidity
Missing or incorrect values are displayed as -999
Metereological data collected by the RV Zeeleeuw from 2003-07-02 06:09:36 to 2003-07-02 13:08:40
Time Latitude Longitude Speed Direction Temperature Pressure Humidity
2003-07-02 06:10 51°13.66 2°55.85 7.3 167 16.1 100110 82
2003-07-02 06:11 51°13.69 2°55.74 6.9 211 16.1 100100 82
2003-07-02 06:12 51°13.7 2°55.74 4.8 214 16.2 100110 82
2003-07-02 06:13 51°13.74 2°55.72 7.3 327 16.2 100120 82
2003-07-02 06:14 51°13.85 2°55.62 10 332 16.2 100100 82
2003-07-02 06:15 51°13.99 2°55.52 9 357 16.1 100100 81
2003-07-02 06:16 51°14.12 2°55.42 15.7 338 16.2 100090 81
2003-07-02 06:17 51°14.24 2°55.29 16.9 347 16.2 100090 81
2003-07-02 06:18 51°14.34 2°55.1 17.5 346 16.2 100090 81
2003-07-02 06:19 51°14.42 2°54.88 17.8 2 15.9 100060 79
2003-07-02 06:20 51°14.41 2°54.6 16 18 15.9 100110 79
2003-07-02 06:21 51°14.34 2°54.3 16.7 26 16 100110 80
2003-07-02 06:22 51°14.24 2°54.01 16.9 29 15.9 100100 80
2003-07-02 06:23 51°14.13 2°53.71 17.7 24 16 100120 82
2003-07-02 06:24 51°14.02 2°53.41 17.9 22 16 100090 83
2003-07-02 06:25 51°13.91 2°53.08 17.9 26 16 100090 83
2003-07-02 06:26 51°13.79 2°52.76 18.1 27 16 100110 84
2003-07-02 06:27 51°13.68 2°52.43 17.9 27 16 100120 84
2003-07-02 06:28 51°13.56 2°52.11 17.9 32 16 100100 84
2003-07-02 06:29 51°13.45 2°51.78 16.5 29 16.1 100110 85
2003-07-02 06:30 51°13.34 2°51.46 17 37 16.1 100110 84
2003-07-02 06:31 51°13.22 2°51.12 17.2 35 16.1 100110 84
2003-07-02 06:32 51°13.11 2°50.79 17.1 26 16.2 100120 84
2003-07-02 06:33 51°12.99 2°50.47 15.8 31 16.1 100110 83
2003-07-02 06:34 51°12.88 2°50.14 18 30 16.2 100120 84
2003-07-02 06:35 51°12.76 2°49.81 16.9 29 16.1 100120 83
2003-07-02 06:36 51°12.65 2°49.48 16.9 34 16 100120 83
2003-07-02 06:37 51°12.53 2°49.16 18.2 31 16 100130 83
2003-07-02 06:38 51°12.42 2°48.83 18.7 28 15.9 100130 82
2003-07-02 06:39 51°12.31 2°48.5 18.7 27 15.8 100130 81
2003-07-02 06:40 51°12.2 2°48.17 18.5 28 15.8 100140 81
2003-07-02 06:41 51°12.08 2°47.84 16.2 24 15.9 100140 81
2003-07-02 06:42 51°11.98 2°47.51 18 21 15.9 100140 82
2003-07-02 06:43 51°11.88 2°47.16 16.5 22 15.8 100140 82
2003-07-02 06:44 51°11.79 2°46.82 16.3 19 15.9 100150 83
2003-07-02 06:45 51°11.69 2°46.48 16.6 26 15.9 100140 83
2003-07-02 06:46 51°11.58 2°46.14 16 26 15.8 100150 83
2003-07-02 06:47 51°11.47 2°45.81 17.6 30 15.9 100140 83
2003-07-02 06:48 51°11.36 2°45.47 15.7 30 16 100150 83
2003-07-02 06:49 51°11.25 2°45.14 17.6 24 15.9 100160 83
2003-07-02 06:50 51°11.14 2°44.81 18.5 30 15.9 100150 83
2003-07-02 06:51 51°11.03 2°44.47 16.3 31 16 100140 83
2003-07-02 06:52 51°10.93 2°44.14 18.3 32 16 100160 82
2003-07-02 06:53 51°10.82 2°43.8 18 27 15.9 100160 81
2003-07-02 06:54 51°10.71 2°43.47 16.9 34 16 100170 81
2003-07-02 06:55 51°10.6 2°43.14 16.9 27 15.9 100160 80
2003-07-02 06:56 51°10.5 2°42.8 17.1 32 16 100170 81
2003-07-02 06:57 51°10.39 2°42.47 15.1 36 16 100170 81
2003-07-02 06:58 51°10.3 2°42.14 18.1 28 16 100180 82
2003-07-02 06:59 51°10.2 2°41.79 16.7 30 15.9 100170 81
2003-07-02 07:00 51°10.1 2°41.45 17.2 23 16 100190 82
2003-07-02 07:01 51°10 2°41.11 17.9 30 16 100180 82
2003-07-02 07:02 51°9.91 2°40.78 17.9 34 15.9 100180 81
2003-07-02 07:03 51°9.81 2°40.43 15.7 34 15.9 100190 82
2003-07-02 07:04 51°9.71 2°40.09 14.1 33 16 100190 82
2003-07-02 07:05 51°9.62 2°39.74 17.2 30 16 100180 82
2003-07-02 07:06 51°9.53 2°39.4 17 28 15.9 100170 82
2003-07-02 07:07 51°9.44 2°39.05 17.5 26 15.9 100200 81
2003-07-02 07:08 51°9.35 2°38.7 17.3 29 16 100200 82
2003-07-02 07:09 51°9.27 2°38.35 17 26 16 100190 82
2003-07-02 07:10 51°9.2 2°37.99 17.6 27 15.9 100200 81
2003-07-02 07:11 51°9.13 2°37.63 17.6 18 15.9 100190 81
2003-07-02 07:12 51°9.1 2°37.34 14.3 21 15.9 100190 81
2003-07-02 07:13 51°9.09 2°37.22 9.1 352 16 100210 82
2003-07-02 07:14 51°9.08 2°37.21 8.4 346 16 100190 82
2003-07-02 07:15 51°9.07 2°37.21 10.4 320 16 100190 82
2003-07-02 07:16 51°9.06 2°37.21 10.3 44 16 100210 82
2003-07-02 07:17 51°9.04 2°37.21 11 280 15.9 100210 80
2003-07-02 07:18 51°9.04 2°37.2 12.6 274 16.1 100230 81
2003-07-02 07:19 51°9.03 2°37.2 10.5 272 16 100230 80
2003-07-02 07:20 51°9.04 2°37.2 10.8 289 16.1 100240 80
2003-07-02 07:21 51°9.05 2°37.19 11.3 293 16.1 100230 80
2003-07-02 07:22 51°9.07 2°37.18 12.4 289 16.2 100220 81
2003-07-02 07:23 51°9.08 2°37.18 11.7 283 16.1 100220 80
2003-07-02 07:24 51°9.1 2°37.17 12.1 296 16 100220 79
2003-07-02 07:25 51°9.11 2°37.16 11.4 278 16 100240 79
2003-07-02 07:26 51°9.11 2°37.15 12.1 290 16.1 100230 79
2003-07-02 07:27 51°9.11 2°37.15 10.4 281 16 100230 79
2003-07-02 07:28 51°9.11 2°37.14 13.3 277 16.1 100230 79
2003-07-02 07:29 51°9.1 2°37.14 12.5 258 16.1 100240 80
2003-07-02 07:30 51°9.1 2°37.14 13.2 269 16.1 100240 80
2003-07-02 07:31 51°9.1 2°37.13 10.2 274 16.1 100250 80
2003-07-02 07:32 51°9.09 2°37.13 10.9 263 16.1 100250 80
2003-07-02 07:33 51°9.09 2°37.12 9.4 262 16.2 100220 81
2003-07-02 07:34 51°9.09 2°37.12 11.8 271 16.2 100230 81
2003-07-02 07:35 51°9.1 2°37.12 10.7 278 16.1 100220 80
2003-07-02 07:36 51°9.11 2°37.12 12.2 268 16.1 100230 80
2003-07-02 07:37 51°9.12 2°37.11 8.4 278 16.2 100220 81
2003-07-02 07:38 51°9.13 2°37.11 12.9 279 16.2 100220 80
2003-07-02 07:39 51°9.14 2°37.12 10.5 266 16.1 100220 80
2003-07-02 07:40 51°9.15 2°37.12 12.9 267 16.1 100220 80
2003-07-02 07:41 51°9.16 2°37.12 11.9 273 16 100230 79
2003-07-02 07:42 51°9.17 2°37.13 10.1 279 16.1 100230 80
2003-07-02 07:43 51°9.18 2°37.13 12 269 16.1 100220 81
2003-07-02 07:44 51°9.19 2°37.14 12 276 16.1 100230 80
2003-07-02 07:45 51°9.25 2°37.1 13.5 340 16.1 100220 80
2003-07-02 07:46 51°9.25 2°36.89 15.1 15 16.1 100220 79
2003-07-02 07:47 51°9.24 2°36.6 16.5 20 16 100220 79
2003-07-02 07:48 51°9.24 2°36.3 15.5 16 16 100220 79
2003-07-02 07:49 51°9.23 2°35.99 16.3 15 16.1 100220 80
2003-07-02 07:50 51°9.22 2°35.68 14.6 17 16 100220 79
2003-07-02 07:51 51°9.21 2°35.38 15.8 14 15.9 100220 80
2003-07-02 07:52 51°9.2 2°35.07 15.7 20 15.9 100230 80
2003-07-02 07:53 51°9.19 2°34.77 15.4 16 15.8 100220 80
2003-07-02 07:54 51°9.17 2°34.46 15.5 16 15.9 100240 81
2003-07-02 07:55 51°9.16 2°34.16 12.8 17 16.1 100240 82
2003-07-02 07:56 51°9.15 2°33.85 15.8 20 16 100230 81
2003-07-02 07:57 51°9.13 2°33.54 15.7 18 15.9 100240 80
2003-07-02 07:58 51°9.12 2°33.23 14.9 14 15.9 100250 81
2003-07-02 07:59 51°9.1 2°32.96 13 13 15.8 100250 81
2003-07-02 08:00 51°9.09 2°32.75 12.4 4 15.8 100250 81
2003-07-02 08:01 51°9.11 2°32.66 11.7 323 15.8 100240 81
2003-07-02 08:02 51°9.11 2°32.65 11 264 15.7 100250 81
2003-07-02 08:03 51°9.1 2°32.64 7.4 254 15.8 100270 81
2003-07-02 08:04 51°9.08 2°32.64 7.7 250 15.7 100290 81
2003-07-02 08:05 51°9.07 2°32.63 10.9 264 15.8 100270 82
2003-07-02 08:06 51°9.06 2°32.63 11.9 261 15.7 100280 81
2003-07-02 08:07 51°9.05 2°32.62 12.5 274 15.6 100280 81
2003-07-02 08:08 51°9.05 2°32.62 11.7 279 15.7 100270 82
2003-07-02 08:09 51°9.05 2°32.62 10 276 15.7 100270 81
2003-07-02 08:10 51°9.04 2°32.61 10.8 280 15.7 100280 81
2003-07-02 08:11 51°9.04 2°32.61 10.9 275 15.7 100280 82
2003-07-02 08:12 51°9.05 2°32.61 10.9 273 15.7 100270 81
2003-07-02 08:13 51°9.05 2°32.6 11.2 269 15.8 100270 82
2003-07-02 08:14 51°9.06 2°32.6 10.2 275 15.7 100280 81
2003-07-02 08:15 51°9.06 2°32.6 11.6 279 15.6 100290 81
2003-07-02 08:16 51°9.07 2°32.6 10.5 282 15.7 100280 81
2003-07-02 08:17 51°9.07 2°32.6 10.8 279 15.7 100280 81
2003-07-02 08:18 51°9.07 2°32.6 11 284 15.7 100280 81
2003-07-02 08:19 51°9.08 2°32.6 12.1 274 15.7 100280 81
2003-07-02 08:20 51°9.08 2°32.6 11.2 276 15.8 100280 82
2003-07-02 08:21 51°9.08 2°32.61 11.6 278 15.8 100270 81
2003-07-02 08:22 51°9.09 2°32.62 8.2 256 15.8 100270 81
2003-07-02 08:23 51°9.09 2°32.63 7.2 252 15.8 100270 81
2003-07-02 08:24 51°9.09 2°32.66 9.1 239 15.8 100270 82
2003-07-02 08:25 51°9.09 2°32.69 8.4 236 15.7 100280 82
2003-07-02 08:26 51°9.08 2°32.72 10.4 214 15.7 100270 81
2003-07-02 08:27 51°9.05 2°32.76 6.3 202 15.7 100290 81
2003-07-02 08:28 51°9.02 2°32.79 6.1 181 15.7 100300 82
2003-07-02 08:29 51°8.96 2°32.82 8.5 122 15.8 100290 82
2003-07-02 08:30 51°8.87 2°32.78 11.4 85 15.8 100280 81
2003-07-02 08:31 51°8.79 2°32.7 9.1 79 15.8 100270 82
2003-07-02 08:32 51°8.7 2°32.62 10.4 79 15.8 100270 82
2003-07-02 08:33 51°8.62 2°32.55 9 78 15.8 100270 82
2003-07-02 08:34 51°8.56 2°32.48 11.5 82 15.8 100280 82
2003-07-02 08:35 51°8.49 2°32.42 9.1 82 15.7 100280 82
2003-07-02 08:36 51°8.45 2°32.36 10.1 72 15.7 100280 82
2003-07-02 08:37 51°8.43 2°32.35 11.2 87 15.7 100280 82
2003-07-02 08:38 51°8.39 2°32.25 12.1 360 15.6 100280 81
2003-07-02 08:39 51°8.43 2°32.19 11.8 269 15.7 100290 81
2003-07-02 08:40 51°8.46 2°32.28 6.1 253 15.8 100320 82
2003-07-02 08:41 51°8.49 2°32.32 11.1 269 15.9 100310 82
2003-07-02 08:42 51°8.5 2°32.33 9.7 270 15.9 100310 81
2003-07-02 08:43 51°8.5 2°32.32 12.3 269 16 100310 82
2003-07-02 08:44 51°8.5 2°32.31 11.8 273 15.9 100310 82
2003-07-02 08:45 51°8.49 2°32.3 10.3 274 15.9 100310 81
2003-07-02 08:46 51°8.48 2°32.29 11.1 278 15.9 100310 81
2003-07-02 08:47 51°8.47 2°32.27 10.1 267 15.9 100320 81
2003-07-02 08:48 51°8.46 2°32.27 9.9 277 15.9 100310 81
2003-07-02 08:49 51°8.46 2°32.26 10.6 284 15.9 100320 81
2003-07-02 08:50 51°8.47 2°32.25 10.3 285 15.9 100310 81
2003-07-02 08:51 51°8.48 2°32.23 10.9 291 15.9 100310 81
2003-07-02 08:52 51°8.49 2°32.21 9.5 299 15.9 100310 80
2003-07-02 08:53 51°8.51 2°32.2 10.2 268 15.9 100310 81
2003-07-02 08:54 51°8.52 2°32.22 7.1 246 16 100320 82
2003-07-02 08:55 51°8.52 2°32.27 6.5 215 16 100330 82
2003-07-02 08:56 51°8.51 2°32.31 6.9 228 15.9 100330 81
2003-07-02 08:57 51°8.5 2°32.32 7.6 252 16 100320 82
2003-07-02 08:58 51°8.49 2°32.32 6.1 254 15.8 100320 81
2003-07-02 08:59 51°8.48 2°32.32 6.4 254 15.8 100320 81
2003-07-02 09:00 51°8.47 2°32.32 7 256 15.8 100330 81
2003-07-02 09:01 51°8.47 2°32.31 7 253 15.9 100320 82
2003-07-02 09:02 51°8.46 2°32.3 7.2 252 16 100330 83
2003-07-02 09:03 51°8.45 2°32.3 8.7 259 15.9 100330 82
2003-07-02 09:04 51°8.44 2°32.29 7.1 259 15.9 100320 82
2003-07-02 09:05 51°8.43 2°32.28 7.9 256 15.9 100330 82
2003-07-02 09:06 51°8.42 2°32.28 7.1 258 15.8 100330 82
2003-07-02 09:07 51°8.41 2°32.27 7.7 266 15.8 100320 82
2003-07-02 09:08 51°8.4 2°32.26 8.1 267 15.8 100320 82
2003-07-02 09:09 51°8.39 2°32.25 8.9 275 15.7 100330 81
2003-07-02 09:10 51°8.37 2°32.25 9.6 270 15.6 100330 81
2003-07-02 09:11 51°8.36 2°32.24 8.6 276 15.6 100330 82
2003-07-02 09:12 51°8.35 2°32.24 5.6 259 15.6 100330 82
2003-07-02 09:13 51°8.33 2°32.24 7 260 15.5 100340 82
2003-07-02 09:14 51°8.33 2°32.27 7.5 277 15.4 100340 82
2003-07-02 09:15 51°8.37 2°32.3 10.6 327 15.5 100320 83
2003-07-02 09:16 51°8.45 2°32.32 10.2 42 15.4 100310 83
2003-07-02 09:17 51°8.48 2°32.34 7.1 313 15.5 100340 83
2003-07-02 09:18 51°8.49 2°32.33 8.7 311 15.6 100330 83
2003-07-02 09:19 51°8.49 2°32.32 8.1 310 15.6 100330 83
2003-07-02 09:20 51°8.49 2°32.31 6.6 310 15.6 100330 83
2003-07-02 09:21 51°8.48 2°32.29 8.8 301 15.5 100320 82
2003-07-02 09:22 51°8.47 2°32.28 8.3 291 15.6 100320 83
2003-07-02 09:23 51°8.47 2°32.28 8.3 278 15.6 100320 82
2003-07-02 09:24 51°8.46 2°32.28 10.5 267 15.5 100330 82
2003-07-02 09:25 51°8.44 2°32.28 5 251 15.5 100330 82
2003-07-02 09:26 51°8.42 2°32.29 6 237 15.4 100330 82
2003-07-02 09:27 51°8.4 2°32.31 7.5 213 15.4 100330 82
2003-07-02 09:28 51°8.37 2°32.31 4 198 15.4 100340 82
2003-07-02 09:29 51°8.33 2°32.32 6.2 197 15.3 100350 82
2003-07-02 09:30 51°8.3 2°32.34 6.6 236 15.4 100340 82
2003-07-02 09:31 51°8.28 2°32.39 4.9 254 15.5 100340 82
2003-07-02 09:32 51°8.24 2°32.55 2.9 252 15.4 100340 82
2003-07-02 09:33 51°8.14 2°32.73 1.4 243 15.3 100350 82
2003-07-02 09:34 51°8.1 2°32.84 8.5 265 15.4 100340 82
2003-07-02 09:35 51°8.11 2°32.91 8.2 278 15.3 100340 82
2003-07-02 09:36 51°8.11 2°32.94 7.6 280 15.5 100340 82
2003-07-02 09:37 51°8.11 2°32.95 7.4 286 15.4 100330 82
2003-07-02 09:38 51°8.11 2°32.96 7.8 289 15.5 100340 82
2003-07-02 09:39 51°8.11 2°32.96 6.8 285 15.6 100350 82
2003-07-02 09:40 51°8.1 2°32.95 8.2 291 15.5 100340 81
2003-07-02 09:41 51°8.1 2°32.94 7.7 297 15.4 100340 81
2003-07-02 09:42 51°8.09 2°32.94 7.3 296 15.5 100340 81
2003-07-02 09:43 51°8.08 2°32.93 7.2 299 15.5 100340 81
2003-07-02 09:44 51°8.07 2°32.92 6.3 295 15.5 100350 81
2003-07-02 09:45 51°8.07 2°32.91 7.3 297 15.6 100350 81
2003-07-02 09:46 51°8.06 2°32.9 6.2 298 15.6 100350 80
2003-07-02 09:47 51°8.05 2°32.88 8.1 296 15.7 100350 81
2003-07-02 09:48 51°8.04 2°32.87 7.6 301 15.7 100350 81
2003-07-02 09:49 51°8.03 2°32.86 9.5 304 15.7 100340 81
2003-07-02 09:50 51°8.02 2°32.85 8.6 301 15.6 100350 80
2003-07-02 09:51 51°8.01 2°32.84 8.3 306 15.5 100350 79
2003-07-02 09:52 51°8 2°32.83 8 305 15.5 100350 80
2003-07-02 09:53 51°7.99 2°32.82 9 298 15.6 100360 81
2003-07-02 09:54 51°7.97 2°32.81 8.9 297 15.5 100360 80
2003-07-02 09:55 51°7.96 2°32.8 8.1 294 15.5 100350 80
2003-07-02 09:56 51°7.95 2°32.79 7 295 15.5 100360 80
2003-07-02 09:57 51°7.94 2°32.78 8.5 302 15.6 100360 81
2003-07-02 09:58 51°7.94 2°32.78 7.4 282 15.6 100360 81
2003-07-02 09:59 51°7.93 2°32.79 9.3 272 15.5 100370 81
2003-07-02 10:00 51°7.92 2°32.8 8.6 261 15.4 100370 79
2003-07-02 10:01 51°7.91 2°32.82 8.2 260 15.5 100370 80
2003-07-02 10:02 51°7.9 2°32.84 6.5 246 15.4 100370 79
2003-07-02 10:03 51°7.88 2°32.87 5.9 230 15.5 100380 80
2003-07-02 10:04 51°7.85 2°32.89 7.6 225 15.5 100370 81
2003-07-02 10:05 51°7.82 2°32.9 4.5 198 15.3 100380 79
2003-07-02 10:06 51°7.76 2°32.9 8 131 15.4 100380 81
2003-07-02 10:07 51°7.71 2°32.83 6.4 66 15.4 100390 80
2003-07-02 10:08 51°7.7 2°32.72 10.2 22 15.4 100350 80
2003-07-02 10:09 51°7.71 2°32.59 10.2 26 15.3 100360 81
2003-07-02 10:10 51°7.73 2°32.44 9.2 27 15.4 100350 82
2003-07-02 10:11 51°7.75 2°32.29 11 22 15.5 100350 82
2003-07-02 10:12 51°7.77 2°32.14 11.9 26 15.4 100350 82
2003-07-02 10:13 51°7.79 2°31.99 9.7 35 15.2 100340 80
2003-07-02 10:14 51°7.8 2°31.87 9.1 32 15.2 100360 79
2003-07-02 10:15 51°7.8 2°31.77 9.3 38 15.2 100360 79
2003-07-02 10:16 51°7.79 2°31.69 8.1 42 15.2 100370 80
2003-07-02 10:17 51°7.78 2°31.62 9 39 15.2 100360 80
2003-07-02 10:18 51°7.77 2°31.56 8.1 52 15.2 100370 80
2003-07-02 10:19 51°7.75 2°31.51 8.6 43 15.2 100380 80
2003-07-02 10:20 51°7.73 2°31.47 7.8 48 15.1 100380 81
2003-07-02 10:21 51°7.71 2°31.43 7.9 48 15.1 100390 81
2003-07-02 10:22 51°7.69 2°31.4 8.3 42 15.2 100370 83
2003-07-02 10:23 51°7.67 2°31.37 7.4 52 15.1 100380 82
2003-07-02 10:24 51°7.65 2°31.34 8.5 62 15 100400 82
2003-07-02 10:25 51°7.63 2°31.32 7.9 62 15 100400 82
2003-07-02 10:26 51°7.6 2°31.29 8.1 86 15 100400 82
2003-07-02 10:27 51°7.58 2°31.26 7.1 68 15.1 100400 83
2003-07-02 10:28 51°7.56 2°31.23 8.1 59 15.2 100400 83
2003-07-02 10:29 51°7.53 2°31.2 7.2 52 15.1 100390 83
2003-07-02 10:30 51°7.52 2°31.16 7.2 23 15 100390 83
2003-07-02 10:31 51°7.5 2°31.12 7.3 23 15 100390 84
2003-07-02 10:32 51°7.5 2°31.08 6.4 344 14.8 100400 83
2003-07-02 10:33 51°7.5 2°31.07 7.8 301 14.8 100390 83
2003-07-02 10:34 51°7.5 2°31.06 6.7 295 14.8 100400 83
2003-07-02 10:35 51°7.51 2°31.07 5.9 301 14.9 100400 83
2003-07-02 10:36 51°7.52 2°31.07 6.6 297 15 100410 84
2003-07-02 10:37 51°7.54 2°31.07 4.9 304 15 100400 83
2003-07-02 10:38 51°7.55 2°31.07 6.6 304 15.2 100400 84
2003-07-02 10:39 51°7.57 2°31.06 5.5 300 15.2 100410 84
2003-07-02 10:40 51°7.58 2°31.05 6.1 300 15.2 100410 84
2003-07-02 10:41 51°7.6 2°31.05 7.1 291 15.2 100400 84
2003-07-02 10:42 51°7.61 2°31.05 7.4 288 15.2 100410 84
2003-07-02 10:43 51°7.63 2°31.05 8.1 294 15.1 100400 84
2003-07-02 10:44 51°7.64 2°31.05 6.9 290 15.1 100410 84
2003-07-02 10:45 51°7.65 2°31.05 7.3 278 15.1 100410 84
2003-07-02 10:46 51°7.66 2°31.06 7.2 276 15 100410 84
2003-07-02 10:47 51°7.67 2°31.07 6.1 277 15 100410 85
2003-07-02 10:48 51°7.68 2°31.09 5.6 286 15 100420 85
2003-07-02 10:49 51°7.69 2°31.1 4.5 288 14.8 100420 84
2003-07-02 10:50 51°7.7 2°31.13 4.6 275 14.6 100410 84
2003-07-02 10:51 51°7.72 2°31.15 5.1 282 14.6 100420 84
2003-07-02 10:52 51°7.73 2°31.18 3.7 236 14.8 100410 84
2003-07-02 10:53 51°7.71 2°31.23 4.2 160 14.9 100420 85
2003-07-02 10:54 51°7.65 2°31.24 3.7 127 14.9 100420 84
2003-07-02 10:55 51°7.58 2°31.24 4.3 97 14.9 100420 84
2003-07-02 10:56 51°7.49 2°31.21 4.9 81 14.9 100420 84
2003-07-02 10:57 51°7.36 2°31.19 5.3 85 15 100430 85
2003-07-02 10:58 51°7.24 2°31.15 5.2 84 15 100420 84
2003-07-02 10:59 51°7.11 2°31.1 4.9 69 15 100420 85
2003-07-02 11:00 51°6.99 2°31.03 5 75 15 100420 85
2003-07-02 11:01 51°6.87 2°30.93 6 71 15 100420 85
2003-07-02 11:02 51°6.75 2°30.91 4.8 89 15 100420 85
2003-07-02 11:03 51°6.63 2°30.93 4.6 88 15 100420 85
2003-07-02 11:04 51°6.5 2°30.96 4.1 100 15 100420 85
2003-07-02 11:05 51°6.39 2°31.07 0.8 184 15.1 100420 85
2003-07-02 11:06 51°6.38 2°31.26 4.9 289 15.1 100420 85
2003-07-02 11:07 51°6.41 2°31.46 4.5 285 15.1 100420 85
2003-07-02 11:08 51°6.47 2°31.65 4.5 288 15.1 100420 85
2003-07-02 11:09 51°6.51 2°31.85 3.9 284 15.2 100410 85
2003-07-02 11:10 51°6.54 2°32.07 3.7 297 15.2 100420 85
2003-07-02 11:11 51°6.58 2°32.26 5.4 282 15.2 100410 85
2003-07-02 11:12 51°6.61 2°32.42 5.5 297 15.2 100410 84
2003-07-02 11:13 51°6.67 2°32.57 7.6 306 15.3 100410 84
2003-07-02 11:14 51°6.75 2°32.68 6.8 303 15.4 100400 84
2003-07-02 11:15 51°6.81 2°32.73 6.3 317 15.4 100400 84
2003-07-02 11:16 51°6.85 2°32.72 6.1 332 15.5 100410 84
2003-07-02 11:17 51°6.86 2°32.72 6.1 348 15.6 100410 84
2003-07-02 11:18 51°6.86 2°32.72 6.3 346 15.6 100410 84
2003-07-02 11:19 51°6.85 2°32.73 5.1 3 15.6 100410 83
2003-07-02 11:20 51°6.85 2°32.74 5.4 353 15.6 100410 83
2003-07-02 11:21 51°6.84 2°32.74 5.1 356 15.6 100410 82
2003-07-02 11:22 51°6.84 2°32.75 5.5 16 15.7 100410 82
2003-07-02 11:23 51°6.83 2°32.75 6.7 42 15.7 100410 82
2003-07-02 11:24 51°6.83 2°32.76 6.2 69 15.6 100410 80
2003-07-02 11:25 51°6.81 2°32.76 7.3 82 15.5 100410 79
2003-07-02 11:26 51°6.8 2°32.76 7.2 94 15.6 100410 78
2003-07-02 11:27 51°6.78 2°32.75 7.4 89 15.6 100410 77
2003-07-02 11:28 51°6.77 2°32.74 6.8 91 15.7 100410 76
2003-07-02 11:29 51°6.75 2°32.72 6.5 94 15.7 100410 76
2003-07-02 11:30 51°6.73 2°32.67 8 35 15.7 100410 76
2003-07-02 11:31 51°6.78 2°32.61 9.2 356 15.8 100410 75
2003-07-02 11:32 51°6.83 2°32.58 7.2 330 15.8 100410 76
2003-07-02 11:33 51°6.84 2°32.6 6.3 305 16 100420 76
2003-07-02 11:34 51°6.86 2°32.63 5.8 305 16.1 100420 76
2003-07-02 11:35 51°6.86 2°32.65 6.6 291 16.1 100420 76
2003-07-02 11:36 51°6.87 2°32.68 7 287 16.2 100420 77
2003-07-02 11:37 51°6.87 2°32.7 7.8 302 16.2 100420 76
2003-07-02 11:38 51°6.87 2°32.73 7.2 298 16.2 100410 75
2003-07-02 11:39 51°6.88 2°32.76 6.4 287 16.2 100410 75
2003-07-02 11:40 51°6.89 2°32.8 6.1 264 16.1 100420 74
2003-07-02 11:41 51°6.89 2°32.86 6 231 16.2 100420 75
2003-07-02 11:42 51°6.88 2°32.91 4.6 202 16.2 100420 76
2003-07-02 11:43 51°6.87 2°32.97 5.8 179 16.2 100430 75
2003-07-02 11:44 51°6.84 2°33 5.5 149 16.2 100430 76
2003-07-02 11:45 51°6.82 2°33.02 5.3 106 16.1 100430 76
2003-07-02 11:46 51°6.8 2°33.03 5.1 106 16.3 100430 78
2003-07-02 11:47 51°6.78 2°33.02 6.1 66 16.2 100430 77
2003-07-02 11:48 51°6.77 2°32.9 9.3 34 16.1 100400 77
2003-07-02 11:49 51°6.74 2°32.7 10.3 39 16 100390 77
2003-07-02 11:50 51°6.72 2°32.47 10.6 35 16 100390 77
2003-07-02 11:51 51°6.7 2°32.24 12.1 32 15.9 100390 78
2003-07-02 11:52 51°6.67 2°32 10.1 27 15.9 100380 78
2003-07-02 11:53 51°6.65 2°31.77 10.7 38 15.9 100370 77
2003-07-02 11:54 51°6.62 2°31.54 9.6 35 15.9 100390 77
2003-07-02 11:55 51°6.59 2°31.32 10.9 25 15.9 100390 77
2003-07-02 11:56 51°6.67 2°31.17 11.2 337 16 100410 78
2003-07-02 11:57 51°6.81 2°31.17 10.6 339 16.1 100400 78
2003-07-02 11:58 51°6.97 2°31.18 11 336 16.1 100400 77
2003-07-02 11:59 51°7.16 2°31.24 10.5 324 16.2 100400 77
2003-07-02 12:00 51°7.33 2°31.45 11 322 16.3 100400 76
2003-07-02 12:01 51°7.49 2°31.71 11.1 324 16.3 100390 76
2003-07-02 12:02 51°7.66 2°31.98 10.5 317 16.3 100400 76
2003-07-02 12:03 51°7.8 2°32.28 10 228 16.4 100410 75
2003-07-02 12:04 51°7.94 2°32.58 10.6 312 16.4 100410 75
2003-07-02 12:05 51°8.08 2°32.89 9.3 314 16.5 100390 75
2003-07-02 12:06 51°8.21 2°33.22 10.3 315 16.5 100400 75
2003-07-02 12:07 51°8.34 2°33.54 9.5 307 16.5 100400 75
2003-07-02 12:08 51°8.47 2°33.86 9.6 310 16.5 100400 75
2003-07-02 12:09 51°8.6 2°34.18 8.4 312 16.6 100400 76
2003-07-02 12:10 51°8.7 2°34.53 7.7 305 16.6 100410 75
2003-07-02 12:11 51°8.79 2°34.89 7.9 229 16.6 100420 75
2003-07-02 12:12 51°8.87 2°35.25 7.7 308 16.6 100410 75
2003-07-02 12:13 51°8.96 2°35.61 7.1 312 16.6 100410 75
2003-07-02 12:14 51°9.05 2°35.97 7.5 311 16.6 100410 75
2003-07-02 12:15 51°9.13 2°36.34 7.4 315 16.6 100420 75
2003-07-02 12:16 51°9.22 2°36.69 6.6 44 16.6 100410 75
2003-07-02 12:17 51°9.31 2°37.05 7 308 16.7 100410 76
2003-07-02 12:18 51°9.4 2°37.41 6 308 16.7 100420 76
2003-07-02 12:19 51°9.48 2°37.77 6.2 44 16.7 100420 76
2003-07-02 12:20 51°9.57 2°38.13 6 314 16.7 100410 76
2003-07-02 12:21 51°9.66 2°38.5 7.1 226 16.7 100410 76
2003-07-02 12:22 51°9.75 2°38.86 7.4 315 16.6 100410 75
2003-07-02 12:23 51°9.85 2°39.22 9.1 303 16.6 100410 75
2003-07-02 12:24 51°9.95 2°39.57 8.4 42 16.7 100410 76
2003-07-02 12:25 51°10.06 2°39.92 7.5 312 16.7 100420 75
2003-07-02 12:26 51°10.16 2°40.28 8.3 314 16.7 100400 75
2003-07-02 12:27 51°10.27 2°40.64 9.4 229 16.6 100410 74
2003-07-02 12:28 51°10.37 2°40.99 8.3 310 16.7 100410 75
2003-07-02 12:29 51°10.47 2°41.35 9.5 310 16.7 100420 74
2003-07-02 12:30 51°10.58 2°41.71 9.4 314 16.6 100400 74
2003-07-02 12:31 51°10.68 2°42.06 7.7 313 16.7 100400 74
2003-07-02 12:32 51°10.79 2°42.42 8.4 312 16.7 100410 75
2003-07-02 12:33 51°10.89 2°42.78 9.1 315 16.6 100410 74
2003-07-02 12:34 51°11 2°43.13 9.6 306 16.6 100410 74
2003-07-02 12:35 51°11.1 2°43.49 7.9 304 16.6 100410 75
2003-07-02 12:36 51°11.19 2°43.86 8.3 314 16.6 100420 75
2003-07-02 12:37 51°11.28 2°44.23 8.2 309 16.6 100420 74
2003-07-02 12:38 51°11.37 2°44.6 8.3 301 16.6 100420 74
2003-07-02 12:39 51°11.46 2°44.97 7.6 299 16.6 100410 74
2003-07-02 12:40 51°11.55 2°45.34 8.9 304 16.7 100420 74
2003-07-02 12:41 51°11.64 2°45.7 8.3 314 16.7 100420 74
2003-07-02 12:42 51°11.73 2°46.07 8.2 297 16.7 100410 74
2003-07-02 12:43 51°11.82 2°46.43 7.5 302 16.7 100430 74
2003-07-02 12:44 51°11.91 2°46.8 8.3 303 16.7 100420 75
2003-07-02 12:45 51°12 2°47.17 8.7 309 16.7 100410 75
2003-07-02 12:46 51°12.1 2°47.53 8.1 227 16.7 100400 74
2003-07-02 12:47 51°12.21 2°47.89 8.8 309 16.7 100410 75
2003-07-02 12:48 51°12.32 2°48.24 8.1 303 16.7 100400 74
2003-07-02 12:49 51°12.43 2°48.59 8 301 16.7 100420 73
2003-07-02 12:50 51°12.54 2°48.94 9.8 304 16.8 100420 74
2003-07-02 12:51 51°12.66 2°49.29 9.1 311 16.8 100410 74
2003-07-02 12:52 51°12.78 2°49.63 9 43 16.8 100410 73
2003-07-02 12:53 51°12.9 2°49.97 9.9 313 16.8 100420 73
2003-07-02 12:54 51°13.03 2°50.31 8.7 307 16.8 100410 73
2003-07-02 12:55 51°13.16 2°50.64 10.3 307 16.8 100400 73
2003-07-02 12:56 51°13.3 2°50.97 10 309 16.8 100400 73
2003-07-02 12:57 51°13.43 2°51.31 9.4 311 16.7 100410 73
2003-07-02 12:58 51°13.56 2°51.64 9.7 310 16.8 100410 73
2003-07-02 12:59 51°13.7 2°51.98 10.4 42 16.9 100410 75
2003-07-02 13:00 51°13.83 2°52.31 8.4 320 16.7 100410 74
2003-07-02 13:01 51°13.96 2°52.65 8.7 320 16.7 100410 74
2003-07-02 13:02 51°14.08 2°52.98 9 310 16.7 100410 74
2003-07-02 13:03 51°14.19 2°53.32 9.3 314 16.7 100420 74
2003-07-02 13:04 51°14.28 2°53.66 8.4 309 16.7 100430 75
2003-07-02 13:05 51°14.37 2°53.99 7.2 294 16.6 100420 74
2003-07-02 13:06 51°14.44 2°54.27 6.2 290 16.6 100430 74
2003-07-02 13:07 51°14.46 2°54.49 4.4 229 16.7 100440 75
2003-07-02 13:08 51°14.43 2°54.71 3.5 233 16.6 100440 75